^^
Saratoga-Weather Station Historical Data
Daily Summary for March 19, 2021 Units:  English    Metric   Both
Daily Weekly Monthly Yearly Custom
  High: Low: Average:
Temperature: 42.4 °F 36.3 °F 38.3 °F
Dew Point: 40.5 °F 35.1 °F 37 °F
Humidity: 97% 92% 95%
Wind Speed: 4mph 0mph 0.4mph
Wind Gust: 8mph - -
Wind- - WSW
Pressure: 30.1 in 30 in -
Precipitation: 0 in    
Historical Graphs
 
 
Tabular Data for March 19, 2021
Time Temperature Dew Point Pressure Wind Wind Speed Wind Gust Humidity Rainfall Rate (Hourly) solar
00:04 41.7 °F 39.9 °F 30 in West 2 mph 8 mph 93% 0 in 0 W/m2
00:09 41.7 °F 39.9 °F 30 in WNW 4 mph 7 mph 93% 0 in 0 W/m2
00:14 42.1 °F 40.3 °F 30 in WSW 2 mph 8 mph 93% 0 in 0 W/m2
00:19 42.3 °F 40.5 °F 30 in NW 4 mph 6 mph 93% 0 in 0 W/m2
00:24 42.4 °F 40.3 °F 30 in West 4 mph 4 mph 92% 0 in 0 W/m2
00:29 42.4 °F 40.3 °F 30 in WNW 0.9 mph 3 mph 92% 0 in 0 W/m2
00:34 42.4 °F 40.3 °F 30 in WSW 2.9 mph 4 mph 92% 0 in 0 W/m2
00:39 42.4 °F 40.3 °F 30 in West 2 mph 2 mph 92% 0 in 0 W/m2
00:44 42.3 °F 40.1 °F 30 in West 2 mph 2 mph 92% 0 in 0 W/m2
00:49 42.3 °F 40.1 °F 30 in Calm   2 mph 92% 0 in 0 W/m2
00:54 41.9 °F 39.7 °F 30 in Calm     92% 0 in 0 W/m2
00:59 41.5 °F 39.4 °F 30 in Calm   2 mph 92% 0 in 0 W/m2
01:04 41.4 °F 39.2 °F 30 in Calm     92% 0 in 0 W/m2
01:09 40.8 °F 38.7 °F 30 in Calm     92% 0 in 0 W/m2
01:14 40.6 °F 38.5 °F 30 in Calm     92% 0 in 0 W/m2
01:19 40.3 °F 38.1 °F 30 in Calm     92% 0 in 0 W/m2
01:24 39.9 °F 38.1 °F 30 in Calm     93% 0 in 0 W/m2
01:29 39.7 °F 37.9 °F 30 in Calm     93% 0 in 0 W/m2
01:34 39.6 °F 37.8 °F 30 in Calm     93% 0 in 0 W/m2
01:39 39.4 °F 37.6 °F 30 in Calm   1 mph 93% 0 in 0 W/m2
01:44 39.2 °F 37.4 °F 30 in West 0.9 mph 3 mph 93% 0 in 0 W/m2
01:49 39 °F 37.4 °F 30 in Calm     94% 0 in 0 W/m2
01:54 39 °F 37.4 °F 30 in West 0.9 mph 3 mph 94% 0 in 0 W/m2
01:59 39.2 °F 37.6 °F 30 in Calm     94% 0 in 0 W/m2
02:04 39 °F 37.4 °F 30 in Calm     94% 0 in 0 W/m2
02:09 39 °F 37.4 °F 30 in Calm     94% 0 in 0 W/m2
02:14 38.7 °F 37 °F 30 in Calm     94% 0 in 0 W/m2
02:19 38.7 °F 37 °F 30 in Calm   1 mph 94% 0 in 0 W/m2
02:24 38.3 °F 36.7 °F 30 in Calm     94% 0 in 0 W/m2
02:29 38.1 °F 36.5 °F 30 in Calm   2 mph 94% 0 in 0 W/m2
02:34 38.1 °F 36.9 °F 30 in Calm     95% 0 in 0 W/m2
02:39 38.3 °F 37 °F 30 in Calm   2 mph 95% 0 in 0 W/m2
02:44 38.3 °F 37 °F 30 in Calm     95% 0 in 0 W/m2
02:49 38.1 °F 36.9 °F 30 in West 0.9 mph 2 mph 95% 0 in 0 W/m2
02:54 38.1 °F 36.9 °F 30 in Calm     95% 0 in 0 W/m2
02:59 37.9 °F 36.7 °F 30 in Calm     95% 0 in 0 W/m2
03:04 37.6 °F 36.3 °F 30 in Calm   1 mph 95% 0 in 0 W/m2
03:09 37.4 °F 36.1 °F 30 in Calm   2 mph 95% 0 in 0 W/m2
03:14 37.6 °F 36.3 °F 30 in Calm     95% 0 in 0 W/m2
03:19 37.9 °F 36.9 °F 30 in WNW 0.9 mph 3 mph 96% 0 in 0 W/m2
03:24 38.3 °F 37.2 °F 30 in West 2 mph 4 mph 96% 0 in 0 W/m2
03:29 38.7 °F 37.6 °F 30 in Calm     96% 0 in 0 W/m2
03:34 38.5 °F 37.4 °F 30 in Calm   1 mph 96% 0 in 0 W/m2
03:39 38.5 °F 37.4 °F 30 in Calm     96% 0 in 0 W/m2
03:44 38.3 °F 37 °F 30 in Calm     95% 0 in 0 W/m2
03:49 38.1 °F 36.9 °F 30 in Calm     95% 0 in 0 W/m2
03:54 37.8 °F 36.5 °F 30 in Calm     95% 0 in 0 W/m2
03:59 37.6 °F 36.3 °F 30 in Calm     95% 0 in 0 W/m2
04:04 37.4 °F 36.1 °F 30 in Calm     95% 0 in 0 W/m2
04:09 37 °F 35.8 °F 30 in Calm     95% 0 in 0 W/m2
04:14 36.9 °F 35.6 °F 30 in Calm     95% 0 in 0 W/m2
04:19 36.7 °F 35.4 °F 30 in Calm     95% 0 in 0 W/m2
04:24 36.5 °F 35.2 °F 30 in Calm     95% 0 in 0 W/m2
04:29 36.3 °F 35.1 °F 30 in Calm     95% 0 in 0 W/m2
04:34 36.5 °F 35.4 °F 30 in Calm     96% 0 in 0 W/m2
04:39 36.5 °F 35.4 °F 30 in Calm     96% 0 in 0 W/m2
04:44 36.7 °F 35.6 °F 30 in Calm     96% 0 in 0 W/m2
04:49 36.7 °F 35.6 °F 30 in Calm     96% 0 in 0 W/m2
04:54 36.7 °F 35.6 °F 30 in Calm     96% 0 in 0 W/m2
04:59 36.7 °F 35.6 °F 30 in Calm   2 mph 96% 0 in 0 W/m2
05:04 36.7 °F 35.6 °F 30 in Calm     96% 0 in 0 W/m2
05:09 36.9 °F 35.8 °F 30 in Calm   2 mph 96% 0 in 0 W/m2
05:14 37 °F 36 °F 30 in Calm     96% 0 in 0 W/m2
05:19 37 °F 36 °F 30 in Calm   2 mph 96% 0 in 0 W/m2
05:24 37.2 °F 36.1 °F 30 in Calm   1 mph 96% 0 in 0 W/m2
05:29 37.2 °F 36.1 °F 30 in Calm   2 mph 96% 0 in 0 W/m2
05:34 37.2 °F 36.1 °F 30 in Calm     96% 0 in 0 W/m2
05:39 37.4 °F 36.3 °F 30 in Calm     96% 0 in 0 W/m2
05:44 37.6 °F 36.5 °F 30 in Calm     96% 0 in 0 W/m2
05:49 37.6 °F 36.5 °F 30 in Calm     96% 0 in 0 W/m2
05:54 37.6 °F 36.5 °F 30 in Calm     96% 0 in 0 W/m2
05:59 37.6 °F 36.5 °F 30 in Calm     96% 0 in 0 W/m2
06:04 37.6 °F 36.5 °F 30.1 in Calm   2 mph 96% 0 in 0 W/m2
06:09 37.4 °F 36.3 °F 30.1 in Calm     96% 0 in 0 W/m2
06:14 37.4 °F 36.3 °F 30 in Calm   2 mph 96% 0 in 0 W/m2
06:19 37.2 °F 36.1 °F 30.1 in Calm     96% 0 in 0 W/m2
06:24 37.2 °F 36.1 °F 30.1 in Calm     96% 0 in 0 W/m2
06:29 37.2 °F 36.1 °F 30.1 in Calm     96% 0 in 0 W/m2
06:34 37 °F 36 °F 30 in Calm   1 mph 96% 0 in 0 W/m2
06:39 36.7 °F 35.6 °F 30 in Calm     96% 0 in 0 W/m2
06:44 36.7 °F 35.6 °F 30.1 in Calm   1 mph 96% 0 in 0 W/m2
06:49 36.3 °F 35.2 °F 30.1 in Calm     96% 0 in 0 W/m2
06:54 36.3 °F 35.2 °F 30.1 in Calm     96% 0 in 0 W/m2
06:59 36.3 °F 35.2 °F 30.1 in Calm     96% 0 in 0 W/m2
07:04 36.7 °F 35.6 °F 30.1 in Calm   1 mph 96% 0 in 0 W/m2
07:09 36.9 °F 35.8 °F 30.1 in Calm     96% 0 in 0 W/m2
07:14 36.9 °F 35.8 °F 30.1 in Calm   1 mph 96% 0 in 0 W/m2
07:19 37 °F 36.3 °F 30.1 in West 2 mph 3 mph 97% 0 in 0 W/m2
07:24 37.2 °F 36.1 °F 30.1 in Calm   1 mph 96% 0 in 0 W/m2
07:29 37.4 °F 36.3 °F 30.1 in Calm     96% 0 in 0 W/m2
07:34 37.4 °F 36.3 °F 30.1 in Calm     96% 0 in 0 W/m2
07:39 37.6 °F 36.5 °F 30.1 in Calm     96% 0 in 0 W/m2
07:44 37.6 °F 36.5 °F 30.1 in Calm   2 mph 96% 0 in 0 W/m2
07:49 37.6 °F 36.5 °F 30.1 in Calm     96% 0 in 5 W/m2
07:55 37.6 °F 36.5 °F 30.1 in Calm   1 mph 96% 0 in 9 W/m2
08:00 37.6 °F 36.5 °F 30.1 in Calm     96% 0 in 11 W/m2
08:05 37.8 °F 37 °F 30.1 in Calm   1 mph 97% 0 in 11 W/m2
08:10 37.8 °F 37 °F 30.1 in Calm     97% 0 in 11 W/m2
08:15 37.9 °F 37.2 °F 30.1 in Calm     97% 0 in 18 W/m2
08:20 38.1 °F 37.4 °F 30.1 in Calm     97% 0 in 21 W/m2
08:25 38.1 °F 37.4 °F 30.1 in SSE 0.9 mph 1 mph 97% 0 in 16 W/m2
08:30 38.5 °F 37.8 °F 30.1 in ESE 2 mph 2 mph 97% 0 in 12 W/m2
08:35 38.5 °F 37.8 °F 30.1 in ESE 0.9 mph 2 mph 97% 0 in 30 W/m2
08:40 38.5 °F 37.8 °F 30.1 in ESE 0.9 mph 2 mph 97% 0 in 23 W/m2
Juneau County Weather
Compliments of Weather Underground - 4 mb